createdAt,value
2024-05-09T00:03:39.490Z,0.00
2024-05-09T00:08:39.416Z,0.00
2024-05-09T00:13:39.330Z,0.00
2024-05-09T00:18:39.372Z,0.00
2024-05-09T00:23:39.320Z,0.00
2024-05-09T00:28:39.111Z,0.00
2024-05-09T00:33:39.249Z,0.00
2024-05-09T00:38:39.018Z,0.00
2024-05-09T00:43:38.911Z,0.00
2024-05-09T00:48:39.047Z,0.00
2024-05-09T00:53:38.989Z,0.00
2024-05-09T00:58:38.712Z,0.00
2024-05-09T01:03:38.962Z,0.00
2024-05-09T01:08:38.690Z,0.00
2024-05-09T01:13:38.524Z,0.00
2024-05-09T01:18:38.536Z,0.00
2024-05-09T01:23:38.511Z,0.00
2024-05-09T01:28:38.328Z,0.00
2024-05-09T01:33:38.650Z,0.00
2024-05-09T01:38:38.271Z,0.00
2024-05-09T01:43:38.131Z,0.00
2024-05-09T01:48:38.150Z,0.00
2024-05-09T01:53:38.098Z,0.00
2024-05-09T01:58:37.938Z,0.00
2024-05-09T02:03:38.011Z,0.00
2024-05-09T02:08:37.920Z,0.00
2024-05-09T02:13:37.738Z,0.00
2024-05-09T02:18:37.814Z,0.00
2024-05-09T02:23:37.756Z,0.00
2024-05-09T02:28:37.551Z,0.00
2024-05-09T02:33:37.867Z,0.00
2024-05-09T02:38:37.500Z,0.00
2024-05-09T02:43:37.342Z,0.00
2024-05-09T02:48:37.557Z,0.00
2024-05-09T02:53:37.416Z,4.00
2024-05-09T02:58:37.134Z,4.00
2024-05-09T03:03:37.330Z,8.00
2024-05-09T03:08:37.081Z,12.00
2024-05-09T03:13:36.968Z,20.00
2024-05-09T03:18:37.009Z,40.00
2024-05-09T03:23:36.889Z,72.00
2024-05-09T03:28:36.765Z,120.00
2024-05-09T03:33:37.129Z,204.00
2024-05-09T03:38:36.664Z,296.00
2024-05-09T03:43:36.568Z,408.00
2024-05-09T03:48:36.615Z,552.00
2024-05-09T03:53:36.526Z,660.00
2024-05-09T03:58:36.355Z,792.00
2024-05-09T04:03:36.450Z,1016.00
2024-05-09T04:08:36.346Z,1480.00
2024-05-09T04:13:36.163Z,3292.00
2024-05-09T04:18:36.173Z,2792.00
2024-05-09T04:23:36.063Z,6740.00
2024-05-09T04:28:35.964Z,11536.00
2024-05-09T04:33:36.290Z,15840.00
2024-05-09T04:38:36.003Z,16352.00
2024-05-09T04:43:35.787Z,21888.00
2024-05-09T04:48:35.764Z,21152.00
2024-05-09T04:53:35.718Z,24032.00
2024-05-09T04:58:35.583Z,28512.00
2024-05-09T05:03:35.700Z,32032.00
2024-05-09T05:08:35.568Z,31648.00
2024-05-09T05:13:37.872Z,25920.00
2024-05-09T05:18:35.385Z,19456.00
2024-05-09T05:23:35.446Z,33824.00
2024-05-09T05:28:35.211Z,42432.00
2024-05-09T05:33:35.301Z,42880.00
2024-05-09T05:38:35.075Z,49280.00
2024-05-09T05:43:34.987Z,49568.00
2024-05-09T05:48:35.029Z,48928.00
2024-05-09T05:53:35.043Z,55872.00
2024-05-09T05:58:34.780Z,56224.00
2024-05-09T06:03:34.779Z,57600.00
2024-05-09T06:08:34.747Z,62880.00
2024-05-09T06:13:34.600Z,52480.00
2024-05-09T06:18:35.203Z,61952.00
2024-05-09T06:23:34.648Z,63808.00
2024-05-09T06:28:34.402Z,67136.00
2024-05-09T06:33:34.656Z,71584.00
2024-05-09T06:38:34.449Z,68448.00
2024-05-09T06:43:34.205Z,66944.00
2024-05-09T06:48:34.357Z,68352.00
2024-05-09T06:53:34.236Z,62944.00
2024-05-09T06:58:33.998Z,67232.00
2024-05-09T07:03:34.095Z,72608.00
2024-05-09T07:08:34.091Z,70048.00
2024-05-09T07:13:33.811Z,62752.00
2024-05-09T07:18:33.899Z,78624.00
2024-05-09T07:23:33.827Z,78880.00
2024-05-09T07:28:33.657Z,79680.00
2024-05-09T07:33:33.665Z,71264.00
2024-05-09T07:38:33.524Z,71936.00
2024-05-09T07:43:33.430Z,77888.00
2024-05-09T07:50:34.249Z,74752.00
2024-05-09T07:53:41.995Z,67936.00
2024-05-09T07:58:34.261Z,77408.00
2024-05-09T08:03:33.417Z,67168.00
2024-05-09T08:08:33.102Z,74688.00
2024-05-09T08:13:33.055Z,74368.00
2024-05-09T08:18:33.227Z,78112.00
2024-05-09T08:23:32.914Z,81056.00
2024-05-09T08:28:32.846Z,80608.00
2024-05-09T08:33:33.230Z,77888.00
2024-05-09T08:38:32.729Z,71584.00
2024-05-09T08:43:32.691Z,73408.00
2024-05-09T08:48:32.974Z,71968.00
2024-05-09T08:53:32.526Z,71040.00
2024-05-09T08:58:32.485Z,72928.00
2024-05-09T09:03:32.649Z,64064.00
2024-05-09T09:08:32.353Z,64544.00
2024-05-09T09:13:32.293Z,67680.00
2024-05-09T09:18:32.490Z,69792.00
2024-05-09T09:23:32.167Z,67680.00
2024-05-09T09:28:32.083Z,67104.00
2024-05-09T09:33:32.660Z,61568.00
2024-05-09T09:38:31.969Z,60128.00
2024-05-09T09:43:31.904Z,62912.00
2024-05-09T09:48:31.978Z,12368.00
2024-05-09T09:53:31.864Z,62688.00
2024-05-09T09:58:31.861Z,62752.00
2024-05-09T10:03:31.820Z,61056.00
2024-05-09T10:08:31.600Z,56096.00
2024-05-09T10:13:31.602Z,49280.00
2024-05-09T10:18:34.106Z,25568.00
2024-05-09T10:23:31.411Z,28064.00
2024-05-09T10:28:31.327Z,54112.00
2024-05-09T10:33:31.368Z,46144.00
2024-05-09T10:38:31.200Z,41696.00
2024-05-09T10:43:31.184Z,52928.00
2024-05-09T10:48:31.089Z,52128.00
2024-05-09T10:53:31.008Z,20032.00
2024-05-09T10:58:30.928Z,16972.00
2024-05-09T11:03:31.070Z,13648.00
2024-05-09T11:08:30.782Z,45760.00
2024-05-09T11:13:30.914Z,43072.00
2024-05-09T11:18:34.690Z,52032.00
2024-05-09T11:23:30.842Z,37248.00
2024-05-09T11:28:30.524Z,29280.00
2024-05-09T11:33:30.576Z,16668.00
2024-05-09T11:38:30.398Z,25344.00
2024-05-09T11:43:30.376Z,22016.00
2024-05-09T11:48:30.647Z,13072.00
2024-05-09T11:53:30.216Z,9160.00
2024-05-09T11:58:30.196Z,8096.00
2024-05-09T12:03:30.387Z,9568.00
2024-05-09T12:08:30.025Z,8740.00
2024-05-09T12:13:30.023Z,8948.00
2024-05-09T12:18:29.975Z,8024.00
2024-05-09T12:23:29.832Z,7228.00
2024-05-09T12:28:29.771Z,6756.00
2024-05-09T12:33:29.896Z,7308.00
2024-05-09T12:38:29.659Z,7380.00
2024-05-09T12:43:29.655Z,7584.00
2024-05-09T12:48:29.780Z,7392.00
2024-05-09T12:53:29.449Z,7256.00
2024-05-09T12:58:29.390Z,7640.00
2024-05-09T13:03:29.459Z,7496.00
2024-05-09T13:08:29.244Z,7320.00
2024-05-09T13:13:29.181Z,7256.00
2024-05-09T13:18:29.229Z,6260.00
2024-05-09T13:23:29.057Z,5916.00
2024-05-09T13:28:29.024Z,6388.00
2024-05-09T13:33:29.126Z,6592.00
2024-05-09T13:38:28.862Z,7816.00
2024-05-09T13:43:28.831Z,7600.00
2024-05-09T13:48:28.787Z,7204.00
2024-05-09T13:53:28.648Z,7624.00
2024-05-09T13:58:28.612Z,7552.00
2024-05-09T14:03:28.600Z,6568.00
2024-05-09T14:08:28.465Z,6132.00
2024-05-09T14:13:28.388Z,6156.00
2024-05-09T14:18:28.388Z,5988.00
2024-05-09T14:23:28.255Z,5304.00
2024-05-09T14:28:28.273Z,6324.00
2024-05-09T14:33:28.240Z,6704.00
2024-05-09T14:38:28.072Z,6316.00
2024-05-09T14:43:28.153Z,5776.00
2024-05-09T14:48:28.009Z,5352.00
2024-05-09T14:53:27.880Z,5704.00
2024-05-09T14:58:27.857Z,5516.00
2024-05-09T15:03:27.813Z,5280.00
2024-05-09T15:08:27.684Z,5104.00
2024-05-09T15:13:27.749Z,4928.00
2024-05-09T15:18:27.731Z,4808.00
2024-05-09T15:23:27.466Z,4724.00
2024-05-09T15:28:27.434Z,4724.00
2024-05-09T15:33:27.397Z,4552.00
2024-05-09T15:38:27.288Z,4524.00
2024-05-09T15:43:27.320Z,4508.00
2024-05-09T15:48:27.257Z,4436.00
2024-05-09T15:53:27.073Z,4380.00
2024-05-09T15:58:27.067Z,4300.00
2024-05-09T16:03:27.096Z,4228.00
2024-05-09T16:08:26.901Z,4196.00
2024-05-09T16:13:26.919Z,4080.00
2024-05-09T16:18:26.843Z,4052.00
2024-05-09T16:23:26.688Z,4020.00
2024-05-09T16:28:27.249Z,3932.00
2024-05-09T16:33:26.669Z,3888.00
2024-05-09T16:38:26.574Z,3624.00
2024-05-09T16:43:26.492Z,3460.00
2024-05-09T16:48:26.382Z,3428.00
2024-05-09T16:53:26.280Z,3484.00
2024-05-09T16:58:26.380Z,3320.00
2024-05-09T17:03:26.233Z,3160.00
2024-05-09T17:08:26.093Z,3076.00
2024-05-09T17:13:26.166Z,2904.00
2024-05-09T17:18:26.044Z,2700.00
2024-05-09T17:23:25.892Z,2684.00
2024-05-09T17:28:25.878Z,2628.00
2024-05-09T17:33:25.895Z,2592.00
2024-05-09T17:38:25.717Z,2384.00
2024-05-09T17:43:25.893Z,2156.00
2024-05-09T17:48:25.623Z,2004.00
2024-05-09T17:53:25.496Z,1812.00
2024-05-09T17:58:25.611Z,1676.00
2024-05-09T18:03:25.500Z,1576.00
2024-05-09T18:08:25.306Z,1456.00
2024-05-09T18:13:25.302Z,1308.00
2024-05-09T18:18:25.230Z,1140.00
2024-05-09T18:23:25.111Z,948.00
2024-05-09T18:28:25.222Z,732.00
2024-05-09T18:33:25.283Z,516.00
2024-05-09T18:38:24.933Z,348.00
2024-05-09T18:43:31.074Z,224.00
2024-05-09T18:48:24.922Z,140.00
2024-05-09T18:53:24.730Z,84.00
2024-05-09T18:58:24.750Z,48.00
2024-05-09T19:03:24.894Z,24.00
2024-05-09T19:08:24.539Z,12.00
2024-05-09T19:13:24.573Z,8.00
2024-05-09T19:18:24.468Z,0.00
2024-05-09T19:23:24.339Z,0.00
2024-05-09T19:28:24.422Z,0.00
2024-05-09T19:33:24.203Z,0.00
2024-05-09T19:38:24.152Z,0.00
2024-05-09T19:43:24.235Z,0.00
2024-05-09T19:48:24.149Z,0.00
2024-05-09T19:53:23.933Z,0.00
2024-05-09T19:58:23.926Z,0.00
2024-05-09T20:03:23.899Z,0.00
2024-05-09T20:08:23.747Z,0.00
2024-05-09T20:13:23.797Z,0.00
2024-05-09T20:18:23.685Z,0.00
2024-05-09T20:23:23.545Z,0.00
2024-05-09T20:28:23.651Z,0.00
2024-05-09T20:33:23.441Z,0.00
2024-05-09T20:38:23.343Z,0.00
2024-05-09T20:43:23.328Z,0.00
2024-05-09T20:48:23.366Z,0.00
2024-05-09T20:53:23.144Z,0.00
2024-05-09T20:58:23.196Z,0.00
2024-05-09T21:03:23.096Z,0.00
2024-05-09T21:08:23.850Z,0.00
2024-05-09T21:13:22.969Z,0.00
2024-05-09T21:18:22.895Z,0.00
2024-05-09T21:23:22.762Z,0.00
2024-05-09T21:28:22.769Z,0.00
2024-05-09T21:33:22.768Z,0.00
2024-05-09T21:38:22.572Z,0.00
2024-05-09T21:43:22.654Z,0.00
2024-05-09T21:48:22.471Z,0.00
2024-05-09T21:53:22.364Z,0.00
2024-05-09T21:58:22.539Z,0.00
2024-05-09T22:03:22.413Z,0.00
2024-05-09T22:08:22.172Z,0.00
2024-05-09T22:13:22.241Z,0.00
2024-05-09T22:18:22.077Z,0.00
2024-05-09T22:23:21.959Z,0.00
2024-05-09T22:28:22.133Z,0.00
2024-05-09T22:33:21.938Z,0.00
2024-05-09T22:38:21.763Z,0.00
2024-05-09T22:43:23.981Z,0.00
2024-05-09T22:48:21.899Z,0.00
2024-05-09T22:53:21.623Z,0.00
2024-05-09T22:58:21.785Z,0.00
2024-05-09T23:03:22.003Z,0.00
2024-05-09T23:08:21.379Z,0.00
2024-05-09T23:13:21.367Z,0.00
2024-05-09T23:18:21.389Z,0.00
2024-05-09T23:23:21.170Z,0.00
2024-05-09T23:28:21.163Z,0.00
2024-05-09T23:33:21.067Z,0.00
2024-05-09T23:38:23.384Z,0.00
2024-05-09T23:43:21.091Z,0.00
2024-05-09T23:48:20.960Z,0.00
2024-05-09T23:53:20.799Z,0.00
2024-05-09T23:58:20.882Z,0.00
